createdAt,value
2023-11-25T00:02:02.361Z,3.30
2023-11-25T00:04:29.579Z,3.07
2023-11-25T00:06:56.821Z,3.20
2023-11-25T00:09:25.427Z,3.33
2023-11-25T00:11:53.389Z,3.73
2023-11-25T00:14:20.620Z,3.30
2023-11-25T00:16:47.896Z,2.97
2023-11-25T00:19:15.341Z,3.10
2023-11-25T00:21:42.597Z,2.90
2023-11-25T00:24:09.892Z,3.03
2023-11-25T00:26:37.094Z,3.13
2023-11-25T00:29:04.671Z,2.93
2023-11-25T00:31:31.932Z,3.20
2023-11-25T00:33:59.519Z,3.43
2023-11-25T00:36:27.031Z,3.70
2023-11-25T00:38:54.225Z,4.87
2023-11-25T00:41:21.489Z,4.57
2023-11-25T00:43:48.778Z,5.67
2023-11-25T00:46:16.147Z,5.37
2023-11-25T00:48:45.113Z,4.80
2023-11-25T00:51:13.571Z,5.10
2023-11-25T00:53:40.801Z,5.60
2023-11-25T00:56:08.106Z,5.13
2023-11-25T00:58:35.401Z,4.27
2023-11-25T01:01:02.660Z,5.07
2023-11-25T01:03:30.090Z,4.83
2023-11-25T01:05:57.556Z,4.27
2023-11-25T01:08:27.256Z,4.10
2023-11-25T01:10:54.480Z,4.43
2023-11-25T01:13:21.765Z,4.10
2023-11-25T01:15:49.287Z,3.77
2023-11-25T01:18:17.713Z,3.50
2023-11-25T01:20:45.000Z,4.17
2023-11-25T01:23:12.188Z,2.43
2023-11-25T01:25:39.439Z,2.90
2023-11-25T01:28:06.737Z,2.80
2023-11-25T01:30:34.428Z,3.60
2023-11-25T01:33:03.889Z,3.30
2023-11-25T01:35:31.154Z,3.17
2023-11-25T01:37:58.780Z,3.10
2023-11-25T01:40:26.303Z,2.80
2023-11-25T01:42:58.257Z,2.53
2023-11-25T01:45:26.007Z,2.27
2023-11-25T01:47:53.758Z,2.10
2023-11-25T01:50:21.769Z,1.70
2023-11-25T01:52:49.666Z,1.90
2023-11-25T01:55:16.890Z,2.00
2023-11-25T01:57:44.777Z,2.90
2023-11-25T02:00:14.688Z,2.97
2023-11-25T02:02:43.297Z,3.00
2023-11-25T02:05:11.425Z,2.63
2023-11-25T02:07:38.778Z,2.27
2023-11-25T02:10:06.469Z,2.10
2023-11-25T02:12:34.303Z,2.20
2023-11-25T02:15:01.952Z,2.07
2023-11-25T02:17:29.308Z,1.93
2023-11-25T02:19:59.377Z,2.10
2023-11-25T02:22:27.543Z,2.03
2023-11-25T02:24:54.763Z,2.00
2023-11-25T02:27:22.021Z,1.90
2023-11-25T02:29:50.915Z,1.70
2023-11-25T02:32:18.532Z,1.90
2023-11-25T02:34:47.083Z,1.80
2023-11-25T02:37:17.286Z,2.20
2023-11-25T02:39:44.624Z,2.13
2023-11-25T02:42:13.714Z,2.50
2023-11-25T02:44:40.993Z,2.30
2023-11-25T02:47:08.207Z,2.20
2023-11-25T02:49:35.499Z,2.30
2023-11-25T02:52:03.073Z,2.30
2023-11-25T02:54:30.365Z,2.90
2023-11-25T02:56:57.612Z,2.80
2023-11-25T02:59:24.831Z,2.50
2023-11-25T03:01:55.303Z,2.70
2023-11-25T03:04:25.225Z,2.40
2023-11-25T03:06:53.175Z,2.43
2023-11-25T03:09:20.840Z,1.40
2023-11-25T03:11:48.498Z,1.80
2023-11-25T03:14:16.986Z,1.60
2023-11-25T03:16:44.699Z,4.27
2023-11-25T03:19:12.293Z,6.97
2023-11-25T03:21:40.077Z,13.50
2023-11-25T03:24:09.408Z,11.07
2023-11-25T03:26:36.939Z,7.30
2023-11-25T03:29:04.480Z,11.40
2023-11-25T03:31:32.044Z,8.17
2023-11-25T03:33:59.320Z,5.87
2023-11-25T03:36:27.657Z,5.10
2023-11-25T03:38:55.468Z,4.70
2023-11-25T03:41:24.258Z,4.00
2023-11-25T03:43:51.579Z,7.13
2023-11-25T03:46:18.886Z,9.43
2023-11-25T03:48:46.167Z,7.80
2023-11-25T03:51:13.572Z,4.00
2023-11-25T03:53:40.840Z,4.73
2023-11-25T03:56:08.439Z,7.50
2023-11-25T03:58:36.937Z,6.67
2023-11-25T04:01:04.297Z,6.13
2023-11-25T04:03:31.657Z,5.90
2023-11-25T04:05:59.027Z,5.80
2023-11-25T04:08:26.257Z,5.03
2023-11-25T04:10:54.162Z,4.63
2023-11-25T04:13:21.597Z,4.87
2023-11-25T04:15:48.875Z,3.87
2023-11-25T04:18:16.271Z,4.33
2023-11-25T04:20:44.539Z,3.30
2023-11-25T04:23:16.105Z,2.90
2023-11-25T04:25:44.876Z,9.27
2023-11-25T04:28:15.188Z,3.33
2023-11-25T04:30:42.529Z,2.70
2023-11-25T04:33:12.593Z,2.00
2023-11-25T04:35:39.908Z,1.90
2023-11-25T04:38:07.301Z,4.13
2023-11-25T04:40:34.570Z,3.40
2023-11-25T04:43:01.835Z,3.00
2023-11-25T04:45:29.068Z,7.00
2023-11-25T04:47:56.369Z,5.60
2023-11-25T04:50:27.596Z,5.47
2023-11-25T04:52:55.149Z,5.53
2023-11-25T04:55:24.287Z,6.17
2023-11-25T04:57:51.580Z,6.40
2023-11-25T05:00:19.248Z,5.80
2023-11-25T05:02:46.774Z,5.30
2023-11-25T05:05:14.458Z,7.00
2023-11-25T05:07:42.117Z,4.53
2023-11-25T05:10:11.374Z,5.10
2023-11-25T05:12:40.087Z,3.63
2023-11-25T05:15:10.032Z,4.23
2023-11-25T05:17:37.477Z,5.23
2023-11-25T05:20:05.767Z,4.60
2023-11-25T05:22:33.827Z,4.77
2023-11-25T05:25:01.193Z,5.90
2023-11-25T05:27:28.492Z,5.23
2023-11-25T05:29:56.548Z,2.83
2023-11-25T05:32:24.033Z,5.83
2023-11-25T05:34:51.471Z,23.93
2023-11-25T05:37:20.457Z,29.17
2023-11-25T05:39:47.893Z,15.83
2023-11-25T05:42:17.006Z,13.57
2023-11-25T05:44:45.438Z,11.50
2023-11-25T05:47:12.804Z,17.70
2023-11-25T05:49:41.785Z,51.30
2023-11-25T05:52:09.233Z,42.83
2023-11-25T05:54:36.511Z,43.23
2023-11-25T05:57:03.743Z,12.10
2023-11-25T05:59:30.965Z,12.70
2023-11-25T06:01:58.278Z,16.17
2023-11-25T06:04:25.596Z,12.63
2023-11-25T06:06:52.898Z,7.03
2023-11-25T06:09:20.128Z,4.00
2023-11-25T06:11:47.373Z,8.27
2023-11-25T06:14:16.323Z,4.57
2023-11-25T06:16:43.832Z,2.37
2023-11-25T06:19:12.205Z,3.53
2023-11-25T06:21:41.094Z,2.03
2023-11-25T06:24:09.452Z,3.53
2023-11-25T06:26:36.693Z,3.40
2023-11-25T06:29:04.246Z,3.33
2023-11-25T06:31:34.634Z,3.97
2023-11-25T06:34:03.559Z,5.93
2023-11-25T06:36:31.886Z,4.30
2023-11-25T06:38:59.170Z,3.87
2023-11-25T06:41:28.328Z,3.07
2023-11-25T06:43:55.857Z,3.50
2023-11-25T06:46:27.028Z,4.30
2023-11-25T06:48:54.756Z,1.80
2023-11-25T06:51:21.959Z,6.73
2023-11-25T06:53:49.206Z,4.53
2023-11-25T06:56:19.336Z,5.50
2023-11-25T06:58:47.301Z,2.40
2023-11-25T07:01:20.299Z,2.47
2023-11-25T07:03:47.826Z,2.00
2023-11-25T07:06:17.923Z,2.00
2023-11-25T07:08:45.743Z,2.60
2023-11-25T07:11:14.745Z,2.33
2023-11-25T07:13:43.267Z,2.80
2023-11-25T07:16:12.828Z,4.10
2023-11-25T07:18:43.767Z,4.30
2023-11-25T07:21:14.203Z,3.60
2023-11-25T07:23:41.569Z,3.10
2023-11-25T07:26:09.092Z,5.70
2023-11-25T07:28:36.830Z,2.90
2023-11-25T07:31:04.886Z,2.30
2023-11-25T07:33:32.230Z,2.70
2023-11-25T07:35:59.503Z,2.90
2023-11-25T07:38:26.696Z,2.60
2023-11-25T07:40:53.962Z,2.87
2023-11-25T07:43:21.314Z,2.63
2023-11-25T07:45:48.548Z,3.20
2023-11-25T07:48:15.759Z,4.20
2023-11-25T07:50:50.181Z,3.43
2023-11-25T07:53:18.758Z,3.70
2023-11-25T07:55:46.065Z,3.70
2023-11-25T07:58:13.499Z,3.53
2023-11-25T08:00:40.792Z,5.00
2023-11-25T08:03:08.138Z,3.87
2023-11-25T08:05:36.170Z,8.10
2023-11-25T08:08:04.525Z,8.30
2023-11-25T08:10:36.136Z,6.07
2023-11-25T08:13:03.838Z,9.20
2023-11-25T08:15:31.140Z,15.43
2023-11-25T08:17:59.696Z,8.27
2023-11-25T08:20:27.271Z,5.50
2023-11-25T08:22:54.765Z,7.37
2023-11-25T08:25:22.427Z,3.80
2023-11-25T08:27:50.844Z,4.37
2023-11-25T08:30:18.091Z,2.80
2023-11-25T08:32:45.548Z,3.30
2023-11-25T08:35:13.297Z,6.30
2023-11-25T08:37:41.042Z,4.57
2023-11-25T08:40:17.212Z,2.50
2023-11-25T08:42:46.060Z,2.80
2023-11-25T08:45:13.615Z,2.40
2023-11-25T08:47:43.833Z,3.33
2023-11-25T08:50:15.481Z,3.70
2023-11-25T08:52:43.517Z,3.03
2023-11-25T08:55:11.123Z,5.03
2023-11-25T08:57:38.698Z,3.93
2023-11-25T09:00:15.728Z,6.07
2023-11-25T09:02:47.344Z,8.97
2023-11-25T09:05:16.407Z,6.20
2023-11-25T09:07:45.214Z,14.03
2023-11-25T09:10:12.697Z,28.17
2023-11-25T09:12:41.569Z,41.30
2023-11-25T09:15:09.343Z,12.20
2023-11-25T09:17:41.000Z,5.27
2023-11-25T09:20:13.234Z,6.90
2023-11-25T09:22:43.573Z,5.20
2023-11-25T09:25:14.212Z,5.70
2023-11-25T09:27:42.142Z,5.20
2023-11-25T09:30:13.463Z,5.80
2023-11-25T09:32:41.489Z,6.90
2023-11-25T09:35:09.305Z,3.83
2023-11-25T09:37:36.700Z,4.20
2023-11-25T09:40:07.179Z,2.80
2023-11-25T09:42:34.598Z,2.40
2023-11-25T09:45:01.827Z,12.03
2023-11-25T09:47:29.357Z,3.90
2023-11-25T09:49:56.973Z,2.70
2023-11-25T09:52:24.226Z,3.83
2023-11-25T09:54:54.071Z,2.90
2023-11-25T09:57:21.622Z,2.67
2023-11-25T09:59:49.044Z,3.33
2023-11-25T10:02:17.534Z,3.23
2023-11-25T10:04:44.895Z,3.87
2023-11-25T10:07:12.235Z,2.70
2023-11-25T10:09:40.388Z,5.80
2023-11-25T10:12:09.047Z,2.70
2023-11-25T10:14:40.074Z,2.73
2023-11-25T10:17:20.320Z,3.67
2023-11-25T10:19:48.097Z,2.60
2023-11-25T10:22:15.621Z,2.10
2023-11-25T10:24:48.228Z,2.27
2023-11-25T10:27:15.442Z,2.00
2023-11-25T10:29:42.840Z,2.00
2023-11-25T10:32:10.643Z,2.20
2023-11-25T10:34:37.984Z,2.30
2023-11-25T10:37:08.751Z,2.47
2023-11-25T10:39:36.250Z,2.70
2023-11-25T10:42:09.839Z,2.60
2023-11-25T10:44:37.055Z,5.30
2023-11-25T10:47:05.907Z,3.80
2023-11-25T10:49:36.843Z,5.13
2023-11-25T10:52:07.777Z,5.57
2023-11-25T10:54:37.067Z,6.10
2023-11-25T10:57:06.289Z,3.50
2023-11-25T10:59:36.677Z,3.70
2023-11-25T11:02:04.740Z,2.70
2023-11-25T11:04:38.896Z,2.03
2023-11-25T11:07:06.286Z,6.00
2023-11-25T11:09:35.530Z,4.00
2023-11-25T11:12:09.838Z,2.70
2023-11-25T11:14:45.893Z,2.80
2023-11-25T11:17:44.058Z,3.57
2023-11-25T11:20:13.597Z,3.50
2023-11-25T11:22:43.636Z,2.27
2023-11-25T11:25:13.781Z,2.77
2023-11-25T11:27:43.550Z,2.60
2023-11-25T11:30:14.595Z,3.30
2023-11-25T11:32:45.482Z,6.37
2023-11-25T11:35:13.630Z,5.27
2023-11-25T11:37:48.125Z,5.97
2023-11-25T11:40:18.124Z,13.07
2023-11-25T11:42:48.130Z,10.73
2023-11-25T11:45:28.530Z,7.90
2023-11-25T11:47:59.564Z,8.40
2023-11-25T11:50:30.691Z,9.07
2023-11-25T11:53:01.280Z,4.80
2023-11-25T11:55:38.014Z,4.10
2023-11-25T11:58:09.504Z,1.80
2023-11-25T12:00:37.223Z,2.60
2023-11-25T12:03:05.484Z,4.20
2023-11-25T12:05:32.723Z,6.27
2023-11-25T12:07:59.965Z,3.50
2023-11-25T12:10:27.869Z,3.00
2023-11-25T12:12:55.081Z,4.90
2023-11-25T12:15:22.365Z,5.50
2023-11-25T12:17:49.767Z,6.20
2023-11-25T12:20:20.230Z,6.40
2023-11-25T12:22:47.621Z,6.73
2023-11-25T12:25:17.630Z,5.33
2023-11-25T12:27:46.371Z,3.93
2023-11-25T12:30:13.865Z,8.37
2023-11-25T12:32:43.426Z,9.93
2023-11-25T12:35:14.904Z,5.70
2023-11-25T12:37:43.694Z,5.90
2023-11-25T12:40:20.390Z,7.47
2023-11-25T12:42:48.636Z,23.50
2023-11-25T12:45:31.807Z,9.17
2023-11-25T12:47:59.270Z,10.63
2023-11-25T12:50:26.636Z,11.63
2023-11-25T12:53:04.077Z,8.67
2023-11-25T12:55:41.103Z,10.63
2023-11-25T12:58:15.001Z,6.47
2023-11-25T13:00:52.227Z,5.40
2023-11-25T13:03:25.789Z,4.77
2023-11-25T13:05:58.302Z,4.40
2023-11-25T13:08:29.492Z,4.67
2023-11-25T13:10:58.328Z,4.30
2023-11-25T13:13:30.470Z,3.90
2023-11-25T13:16:00.330Z,4.03
2023-11-25T13:18:27.857Z,5.20
2023-11-25T13:20:55.462Z,8.73
2023-11-25T13:23:22.749Z,7.60
2023-11-25T13:25:50.175Z,7.60
2023-11-25T13:28:17.424Z,14.47
2023-11-25T13:30:44.960Z,7.30
2023-11-25T13:33:14.621Z,7.40
2023-11-25T13:35:43.521Z,6.10
2023-11-25T13:38:12.005Z,5.93
2023-11-25T13:40:39.322Z,5.90
2023-11-25T13:43:07.320Z,7.17
2023-11-25T13:45:34.631Z,13.17
2023-11-25T13:48:06.025Z,10.73
2023-11-25T13:50:33.717Z,7.90
2023-11-25T13:53:02.370Z,6.77
2023-11-25T13:55:31.648Z,7.47
2023-11-25T13:57:58.999Z,8.47
2023-11-25T14:00:27.902Z,5.73
2023-11-25T14:02:56.208Z,6.17
2023-11-25T14:05:23.889Z,7.73
2023-11-25T14:07:51.211Z,7.80
2023-11-25T14:10:18.547Z,6.13
2023-11-25T14:12:45.750Z,7.40
2023-11-25T14:15:13.123Z,7.23
2023-11-25T14:17:41.023Z,5.43
2023-11-25T14:20:16.722Z,8.37
2023-11-25T14:22:45.365Z,7.80
2023-11-25T14:25:15.904Z,11.53
2023-11-25T14:27:43.953Z,11.47
2023-11-25T14:30:12.055Z,11.63
2023-11-25T14:32:41.243Z,13.63
2023-11-25T14:35:09.631Z,12.37
2023-11-25T14:37:40.010Z,12.73
2023-11-25T14:40:07.899Z,19.57
2023-11-25T14:42:35.785Z,14.07
2023-11-25T14:45:03.609Z,20.23
2023-11-25T14:47:30.967Z,46.47
2023-11-25T14:49:58.532Z,43.23
2023-11-25T14:52:25.927Z,50.97
2023-11-25T14:54:53.154Z,34.13
2023-11-25T14:57:20.435Z,23.27
2023-11-25T14:59:47.707Z,9.10
2023-11-25T15:02:15.035Z,17.87
2023-11-25T15:04:42.399Z,18.97
2023-11-25T15:07:10.151Z,17.63
2023-11-25T15:09:37.403Z,20.17
2023-11-25T15:12:05.976Z,18.37
2023-11-25T15:14:33.262Z,17.93
2023-11-25T15:17:02.167Z,15.73
2023-11-25T15:19:29.549Z,16.83
2023-11-25T15:21:56.838Z,15.80
2023-11-25T15:24:24.092Z,15.43
2023-11-25T15:26:51.418Z,25.03
2023-11-25T15:29:18.897Z,12.20
2023-11-25T15:31:46.914Z,12.17
2023-11-25T15:34:14.313Z,11.50
2023-11-25T15:36:41.515Z,10.93
2023-11-25T15:39:09.912Z,10.80
2023-11-25T15:41:37.171Z,9.20
2023-11-25T15:44:04.621Z,9.27
2023-11-25T15:46:31.860Z,10.53
2023-11-25T15:48:59.167Z,9.20
2023-11-25T15:51:26.572Z,10.73
2023-11-25T15:53:53.794Z,9.43
2023-11-25T15:56:21.440Z,10.33
2023-11-25T15:58:50.208Z,12.87
2023-11-25T16:01:17.576Z,10.23
2023-11-25T16:03:44.853Z,13.17
2023-11-25T16:06:15.033Z,11.60
2023-11-25T16:08:42.589Z,12.73
2023-11-25T16:11:09.863Z,15.90
2023-11-25T16:13:37.369Z,19.43
2023-11-25T16:16:04.920Z,18.07
2023-11-25T16:18:34.243Z,13.93
2023-11-25T16:21:03.854Z,14.90
2023-11-25T16:23:31.077Z,21.80
2023-11-25T16:26:00.132Z,24.90
2023-11-25T16:28:27.429Z,18.30
2023-11-25T16:30:54.663Z,18.10
2023-11-25T16:33:21.946Z,19.43
2023-11-25T16:35:49.686Z,21.40
2023-11-25T16:38:19.699Z,14.93
2023-11-25T16:40:47.063Z,15.20
2023-11-25T16:43:14.261Z,15.33
2023-11-25T16:45:45.068Z,17.20
2023-11-25T16:48:12.305Z,16.20
2023-11-25T16:50:40.881Z,14.27
2023-11-25T16:53:09.045Z,14.43
2023-11-25T16:55:36.934Z,15.37
2023-11-25T16:58:04.196Z,15.80
2023-11-25T17:00:31.485Z,11.17
2023-11-25T17:02:58.906Z,11.53
2023-11-25T17:05:28.138Z,11.17
2023-11-25T17:07:55.491Z,12.47
2023-11-25T17:10:25.959Z,12.13
2023-11-25T17:12:53.367Z,12.27
2023-11-25T17:15:20.618Z,12.00
2023-11-25T17:17:47.845Z,12.80
2023-11-25T17:20:16.029Z,11.93
2023-11-25T17:22:43.297Z,14.10
2023-11-25T17:25:10.555Z,13.63
2023-11-25T17:27:38.239Z,9.40
2023-11-25T17:30:06.843Z,12.17
2023-11-25T17:32:34.094Z,11.67
2023-11-25T17:35:01.500Z,11.37
2023-11-25T17:37:28.862Z,13.30
2023-11-25T17:39:56.461Z,15.20
2023-11-25T17:42:24.994Z,22.77
2023-11-25T17:44:52.280Z,18.50
2023-11-25T17:47:19.594Z,28.10
2023-11-25T17:49:47.665Z,21.00
2023-11-25T17:52:15.106Z,20.13
2023-11-25T17:54:42.350Z,18.27
2023-11-25T17:57:10.091Z,16.63
2023-11-25T17:59:37.360Z,13.70
2023-11-25T18:02:04.925Z,8.60
2023-11-25T18:04:32.962Z,13.97
2023-11-25T18:07:00.150Z,13.13
2023-11-25T18:09:27.497Z,8.10
2023-11-25T18:11:54.714Z,21.87
2023-11-25T18:14:22.571Z,13.40
2023-11-25T18:16:49.984Z,17.07
2023-11-25T18:19:17.256Z,26.23
2023-11-25T18:21:44.502Z,14.20
2023-11-25T18:24:11.809Z,19.47
2023-11-25T18:26:39.183Z,17.07
2023-11-25T18:29:06.946Z,14.97
2023-11-25T18:31:34.296Z,16.63
2023-11-25T18:34:01.508Z,11.37
2023-11-25T18:36:28.788Z,11.10
2023-11-25T18:38:56.032Z,12.70
2023-11-25T18:41:23.222Z,9.30
2023-11-25T18:43:50.648Z,11.47
2023-11-25T18:46:17.986Z,9.67
2023-11-25T18:48:45.246Z,13.03
2023-11-25T18:51:12.490Z,12.23
2023-11-25T18:53:39.785Z,12.63
2023-11-25T18:56:07.143Z,11.27
2023-11-25T18:58:34.629Z,14.30
2023-11-25T19:01:01.992Z,15.43
2023-11-25T19:03:29.262Z,14.83
2023-11-25T19:05:56.567Z,16.77
2023-11-25T19:08:23.858Z,18.00
2023-11-25T19:10:51.300Z,17.30
2023-11-25T19:13:18.520Z,14.90
2023-11-25T19:15:45.929Z,15.23
2023-11-25T19:18:13.300Z,17.23
2023-11-25T19:20:40.505Z,18.43
2023-11-25T19:23:07.797Z,16.20
2023-11-25T19:25:36.248Z,14.33
2023-11-25T19:28:04.575Z,13.50
2023-11-25T19:30:31.978Z,15.00
2023-11-25T19:32:59.936Z,11.13
2023-11-25T19:35:27.542Z,14.77
2023-11-25T19:37:55.269Z,15.93
2023-11-25T19:40:22.696Z,14.27
2023-11-25T19:42:51.009Z,12.77
2023-11-25T19:45:18.327Z,14.33
2023-11-25T19:47:45.795Z,15.03
2023-11-25T19:50:14.202Z,22.67
2023-11-25T19:52:41.572Z,30.73
2023-11-25T19:55:11.300Z,25.60
2023-11-25T19:57:39.163Z,20.37
2023-11-25T20:00:11.409Z,14.80
2023-11-25T20:02:38.779Z,12.83
2023-11-25T20:05:06.515Z,11.60
2023-11-25T20:07:33.799Z,12.60
2023-11-25T20:10:01.037Z,13.40
2023-11-25T20:12:28.330Z,15.53
2023-11-25T20:14:56.206Z,17.10
2023-11-25T20:17:23.859Z,18.27
2023-11-25T20:19:51.836Z,15.87
2023-11-25T20:22:21.425Z,14.43
2023-11-25T20:24:48.907Z,13.93
2023-11-25T20:27:16.171Z,12.03
2023-11-25T20:29:43.414Z,11.27
2023-11-25T20:32:10.744Z,6.90
2023-11-25T20:34:39.997Z,6.83
2023-11-25T20:37:07.927Z,7.50
2023-11-25T20:39:35.378Z,7.47
2023-11-25T20:42:02.625Z,8.03
2023-11-25T20:44:29.890Z,9.23
2023-11-25T20:46:57.333Z,9.90
2023-11-25T20:49:24.582Z,10.70
2023-11-25T20:51:51.876Z,15.13
2023-11-25T20:54:19.644Z,14.80
2023-11-25T20:56:47.293Z,11.90
2023-11-25T20:59:17.243Z,12.07
2023-11-25T21:01:44.539Z,14.47
2023-11-25T21:04:11.878Z,18.10
2023-11-25T21:06:39.171Z,17.27
2023-11-25T21:09:06.844Z,19.73
2023-11-25T21:11:35.978Z,26.80
2023-11-25T21:14:03.254Z,30.10
2023-11-25T21:16:30.518Z,28.87
2023-11-25T21:18:58.848Z,29.40
2023-11-25T21:21:27.862Z,30.50
2023-11-25T21:23:57.899Z,30.00
2023-11-25T21:26:25.141Z,30.33
2023-11-25T21:28:53.581Z,28.53
2023-11-25T21:31:20.924Z,22.93
2023-11-25T21:33:48.322Z,28.33
2023-11-25T21:36:15.538Z,21.67
2023-11-25T21:38:43.363Z,21.77
2023-11-25T21:41:11.002Z,16.70
2023-11-25T21:43:38.289Z,20.17
2023-11-25T21:46:07.209Z,19.20
2023-11-25T21:48:36.518Z,16.50
2023-11-25T21:51:04.215Z,17.00
2023-11-25T21:53:31.409Z,24.40
2023-11-25T21:55:59.205Z,18.30
2023-11-25T21:58:26.454Z,13.73
2023-11-25T22:00:53.656Z,15.20
2023-11-25T22:03:21.054Z,20.13
2023-11-25T22:05:48.808Z,20.13
2023-11-25T22:08:16.025Z,18.20
2023-11-25T22:10:43.281Z,18.00
2023-11-25T22:13:10.603Z,17.17
2023-11-25T22:15:39.931Z,17.27
2023-11-25T22:18:08.923Z,17.70
2023-11-25T22:20:36.189Z,16.70
2023-11-25T22:23:03.446Z,18.93
2023-11-25T22:25:35.958Z,16.07
2023-11-25T22:28:03.603Z,20.53
2023-11-25T22:30:30.859Z,18.77
2023-11-25T22:32:58.218Z,17.20
2023-11-25T22:35:25.581Z,17.17
2023-11-25T22:37:52.926Z,16.60
2023-11-25T22:40:20.185Z,15.07
2023-11-25T22:42:47.396Z,13.53
2023-11-25T22:45:14.990Z,13.17
2023-11-25T22:47:42.324Z,13.73
2023-11-25T22:50:09.965Z,11.33
2023-11-25T22:52:37.730Z,12.80
2023-11-25T22:55:05.161Z,12.47
2023-11-25T22:57:32.382Z,16.13
2023-11-25T23:00:02.299Z,13.77
2023-11-25T23:02:30.328Z,12.67
2023-11-25T23:04:58.085Z,13.97
2023-11-25T23:07:26.266Z,12.00
2023-11-25T23:09:53.523Z,12.40
2023-11-25T23:12:24.212Z,6.20
2023-11-25T23:14:52.544Z,7.90
2023-11-25T23:17:20.517Z,8.47
2023-11-25T23:19:47.752Z,9.27
2023-11-25T23:22:15.046Z,9.07
2023-11-25T23:24:42.276Z,11.47
2023-11-25T23:27:09.741Z,9.23
2023-11-25T23:29:37.726Z,7.13
2023-11-25T23:32:05.236Z,7.10
2023-11-25T23:34:32.534Z,7.07
2023-11-25T23:36:59.772Z,7.00
2023-11-25T23:39:27.011Z,7.23
2023-11-25T23:41:54.641Z,6.70
2023-11-25T23:44:21.956Z,5.97
2023-11-25T23:46:49.264Z,6.63
2023-11-25T23:49:17.004Z,6.03
2023-11-25T23:51:44.204Z,6.73
2023-11-25T23:54:11.433Z,6.53
2023-11-25T23:56:39.542Z,7.20
2023-11-25T23:59:06.769Z,6.90
